createdAt,value
2024-05-09T00:00:35.556Z,12.38
2024-05-09T00:03:10.169Z,12.36
2024-05-09T00:05:38.403Z,12.34
2024-05-09T00:08:06.153Z,12.29
2024-05-09T00:10:37.161Z,12.27
2024-05-09T00:13:07.067Z,12.23
2024-05-09T00:15:34.924Z,12.21
2024-05-09T00:18:02.482Z,12.18
2024-05-09T00:20:37.364Z,12.14
2024-05-09T00:23:08.109Z,12.14
2024-05-09T00:25:35.294Z,12.08
2024-05-09T00:28:02.162Z,12.07
2024-05-09T00:30:34.282Z,12.05
2024-05-09T00:33:04.875Z,12.01
2024-05-09T00:35:32.458Z,12.00
2024-05-09T00:37:59.154Z,11.97
2024-05-09T00:40:37.223Z,11.91
2024-05-09T00:43:06.854Z,11.89
2024-05-09T00:45:36.738Z,11.84
2024-05-09T00:48:09.382Z,11.78
2024-05-09T00:50:40.193Z,11.75
2024-05-09T00:53:08.286Z,11.75
2024-05-09T00:55:36.557Z,11.71
2024-05-09T00:58:05.027Z,11.66
2024-05-09T01:00:38.511Z,11.60
2024-05-09T01:03:10.004Z,11.55
2024-05-09T01:05:39.082Z,11.45
2024-05-09T01:08:06.651Z,11.40
2024-05-09T01:10:35.148Z,11.35
2024-05-09T01:13:06.918Z,11.34
2024-05-09T01:15:34.552Z,11.30
2024-05-09T01:18:05.889Z,11.28
2024-05-09T01:20:40.851Z,11.25
2024-05-09T01:23:10.912Z,11.22
2024-05-09T01:25:37.863Z,11.20
2024-05-09T01:28:04.851Z,11.21
2024-05-09T01:30:35.144Z,11.17
2024-05-09T01:33:09.012Z,11.16
2024-05-09T01:35:37.550Z,11.16
2024-05-09T01:38:04.659Z,11.14
2024-05-09T01:40:38.307Z,11.13
2024-05-09T01:43:07.670Z,11.13
2024-05-09T01:45:34.576Z,11.08
2024-05-09T01:48:01.954Z,11.05
2024-05-09T01:50:37.541Z,11.02
2024-05-09T01:53:09.498Z,10.97
2024-05-09T01:55:36.148Z,10.95
2024-05-09T01:58:02.684Z,10.92
2024-05-09T02:00:38.152Z,10.90
2024-05-09T02:03:10.218Z,10.87
2024-05-09T02:05:37.720Z,10.82
2024-05-09T02:08:05.384Z,10.80
2024-05-09T02:10:33.170Z,10.73
2024-05-09T02:13:00.215Z,10.69
2024-05-09T02:15:26.791Z,10.69
2024-05-09T02:17:53.658Z,10.64
2024-05-09T02:20:30.070Z,10.63
2024-05-09T02:23:04.020Z,10.60
2024-05-09T02:25:31.441Z,10.60
2024-05-09T02:27:58.017Z,10.59
2024-05-09T02:30:31.166Z,10.57
2024-05-09T02:33:05.853Z,10.55
2024-05-09T02:35:32.762Z,10.54
2024-05-09T02:37:59.554Z,10.52
2024-05-09T02:40:35.061Z,10.50
2024-05-09T02:43:04.340Z,10.45
2024-05-09T02:45:30.915Z,10.42
2024-05-09T02:47:57.990Z,10.40
2024-05-09T02:50:33.159Z,10.44
2024-05-09T02:53:04.462Z,10.37
2024-05-09T02:55:31.130Z,10.34
2024-05-09T02:57:57.910Z,10.30
2024-05-09T03:00:33.676Z,10.27
2024-05-09T03:03:04.965Z,10.24
2024-05-09T03:05:31.751Z,10.21
2024-05-09T03:07:58.457Z,10.19
2024-05-09T03:10:28.647Z,10.13
2024-05-09T03:12:55.893Z,10.12
2024-05-09T03:15:22.740Z,10.10
2024-05-09T03:17:49.616Z,10.05
2024-05-09T03:20:23.334Z,10.04
2024-05-09T03:22:53.466Z,10.03
2024-05-09T03:25:21.373Z,10.03
2024-05-09T03:27:48.289Z,10.01
2024-05-09T03:30:22.133Z,10.01
2024-05-09T03:32:56.546Z,9.99
2024-05-09T03:35:23.246Z,9.96
2024-05-09T03:37:49.807Z,9.92
2024-05-09T03:40:23.341Z,9.88
2024-05-09T03:42:52.728Z,9.89
2024-05-09T03:45:19.247Z,9.89
2024-05-09T03:47:45.990Z,9.86
2024-05-09T03:50:18.520Z,9.83
2024-05-09T03:52:52.557Z,9.80
2024-05-09T03:55:19.160Z,9.81
2024-05-09T03:57:45.671Z,9.83
2024-05-09T04:00:18.151Z,9.83
2024-05-09T04:02:52.748Z,9.79
2024-05-09T04:05:19.386Z,9.78
2024-05-09T04:07:46.113Z,9.77
2024-05-09T04:10:21.060Z,9.76
2024-05-09T04:12:54.539Z,9.73
2024-05-09T04:15:21.206Z,9.71
2024-05-09T04:17:51.376Z,9.68
2024-05-09T04:20:29.124Z,9.65
2024-05-09T04:23:03.688Z,9.56
2024-05-09T04:25:32.294Z,9.57
2024-05-09T04:27:58.852Z,9.55
2024-05-09T04:30:34.616Z,9.55
2024-05-09T04:33:05.488Z,9.56
2024-05-09T04:35:32.479Z,9.57
2024-05-09T04:37:59.085Z,9.58
2024-05-09T04:40:32.971Z,9.59
2024-05-09T04:43:02.871Z,9.60
2024-05-09T04:45:29.365Z,9.63
2024-05-09T04:47:56.057Z,9.63
2024-05-09T04:50:30.333Z,9.63
2024-05-09T04:53:03.530Z,9.63
2024-05-09T04:55:30.364Z,9.64
2024-05-09T04:57:56.959Z,9.66
2024-05-09T05:00:32.392Z,9.68
2024-05-09T05:03:14.257Z,9.69
2024-05-09T05:05:43.538Z,9.71
2024-05-09T05:08:16.448Z,9.75
2024-05-09T05:10:44.326Z,9.77
2024-05-09T05:13:23.745Z,9.83
2024-05-09T05:15:53.029Z,9.87
2024-05-09T05:18:19.880Z,9.92
2024-05-09T05:20:46.908Z,9.96
2024-05-09T05:23:15.482Z,10.04
2024-05-09T05:25:42.876Z,10.10
2024-05-09T05:28:09.434Z,10.16
2024-05-09T05:30:37.500Z,10.21
2024-05-09T05:33:06.338Z,10.28
2024-05-09T05:35:34.359Z,10.34
2024-05-09T05:38:01.299Z,10.38
2024-05-09T05:40:35.419Z,10.46
2024-05-09T05:43:05.585Z,10.51
2024-05-09T05:45:32.123Z,10.56
2024-05-09T05:47:59.954Z,10.63
2024-05-09T05:50:32.670Z,10.70
2024-05-09T05:53:03.218Z,10.76
2024-05-09T05:55:29.827Z,10.84
2024-05-09T05:57:56.326Z,10.90
2024-05-09T06:00:29.810Z,10.96
2024-05-09T06:03:04.430Z,11.01
2024-05-09T06:05:31.229Z,11.07
2024-05-09T06:07:57.953Z,11.09
2024-05-09T06:10:30.030Z,11.14
2024-05-09T06:13:04.905Z,11.24
2024-05-09T06:15:31.468Z,11.32
2024-05-09T06:17:58.151Z,11.37
2024-05-09T06:20:34.297Z,11.39
2024-05-09T06:23:03.954Z,11.46
2024-05-09T06:25:30.518Z,11.50
2024-05-09T06:27:57.116Z,11.54
2024-05-09T06:30:34.713Z,11.55
2024-05-09T06:33:06.375Z,11.61
2024-05-09T06:35:33.924Z,11.65
2024-05-09T06:38:00.964Z,11.67
2024-05-09T06:40:36.254Z,11.67
2024-05-09T06:43:05.641Z,11.68
2024-05-09T06:45:32.179Z,11.73
2024-05-09T06:47:58.852Z,11.78
2024-05-09T06:50:28.548Z,11.85
2024-05-09T06:53:01.920Z,11.89
2024-05-09T06:55:28.481Z,11.93
2024-05-09T06:57:55.086Z,11.96
2024-05-09T07:00:27.737Z,12.01
2024-05-09T07:03:05.620Z,12.07
2024-05-09T07:05:33.291Z,12.13
2024-05-09T07:07:59.943Z,12.23
2024-05-09T07:10:32.837Z,12.33
2024-05-09T07:13:01.867Z,12.36
2024-05-09T07:15:28.424Z,12.42
2024-05-09T07:17:55.271Z,12.49
2024-05-09T07:20:31.713Z,12.58
2024-05-09T07:23:05.452Z,12.66
2024-05-09T07:25:32.210Z,12.72
2024-05-09T07:27:58.877Z,12.77
2024-05-09T07:30:32.813Z,12.83
2024-05-09T07:33:01.949Z,12.88
2024-05-09T07:35:29.623Z,12.93
2024-05-09T07:37:56.544Z,13.03
2024-05-09T07:40:32.375Z,13.06
2024-05-09T07:43:07.082Z,13.15
2024-05-09T07:52:23.404Z,13.33
2024-05-09T07:53:38.602Z,13.46
2024-05-09T07:56:07.531Z,13.51
2024-05-09T07:58:34.423Z,13.56
2024-05-09T08:01:02.635Z,13.64
2024-05-09T08:03:29.491Z,13.67
2024-05-09T08:05:56.268Z,13.75
2024-05-09T08:08:23.221Z,13.86
2024-05-09T08:10:50.294Z,13.91
2024-05-09T08:13:16.943Z,14.08
2024-05-09T08:15:43.608Z,14.31
2024-05-09T08:18:10.884Z,14.31
2024-05-09T08:20:41.876Z,14.38
2024-05-09T08:23:08.417Z,14.45
2024-05-09T08:25:34.938Z,14.49
2024-05-09T08:28:03.569Z,14.52
2024-05-09T08:30:36.329Z,14.53
2024-05-09T08:33:05.465Z,14.59
2024-05-09T08:35:33.137Z,14.65
2024-05-09T08:37:59.762Z,14.60
2024-05-09T08:40:33.733Z,14.71
2024-05-09T08:43:06.637Z,14.84
2024-05-09T08:45:34.840Z,14.90
2024-05-09T08:48:05.764Z,14.98
2024-05-09T08:50:38.699Z,15.11
2024-05-09T08:53:06.886Z,15.25
2024-05-09T08:55:33.517Z,15.34
2024-05-09T08:58:03.482Z,15.38
2024-05-09T09:00:36.764Z,15.54
2024-05-09T09:03:09.096Z,15.66
2024-05-09T09:05:39.012Z,15.94
2024-05-09T09:08:08.056Z,15.99
2024-05-09T09:10:35.254Z,15.91
2024-05-09T09:13:04.362Z,15.86
2024-05-09T09:15:31.527Z,15.90
2024-05-09T09:17:59.418Z,16.09
2024-05-09T09:20:34.130Z,16.29
2024-05-09T09:23:03.903Z,16.30
2024-05-09T09:25:30.693Z,16.51
2024-05-09T09:27:58.432Z,16.75
2024-05-09T09:30:35.066Z,16.83
2024-05-09T09:33:05.151Z,16.78
2024-05-09T09:35:32.584Z,16.90
2024-05-09T09:38:02.588Z,17.09
2024-05-09T09:40:36.180Z,17.13
2024-05-09T09:43:13.841Z,17.21
2024-05-09T09:45:43.326Z,17.23
2024-05-09T09:48:10.518Z,17.30
2024-05-09T09:50:37.997Z,17.15
2024-05-09T09:53:07.047Z,16.93
2024-05-09T09:55:34.697Z,16.84
2024-05-09T09:58:01.417Z,16.81
2024-05-09T10:00:32.971Z,16.89
2024-05-09T10:03:01.820Z,16.96
2024-05-09T10:05:29.922Z,17.29
2024-05-09T10:07:58.344Z,17.25
2024-05-09T10:10:32.168Z,17.15
2024-05-09T10:13:00.533Z,17.12
2024-05-09T10:15:27.601Z,17.11
2024-05-09T10:17:54.732Z,17.13
2024-05-09T10:20:25.122Z,17.41
2024-05-09T10:22:54.743Z,17.37
2024-05-09T10:25:21.980Z,17.27
2024-05-09T10:27:55.423Z,17.82
2024-05-09T10:30:29.823Z,18.18
2024-05-09T10:33:02.455Z,18.47
2024-05-09T10:35:32.039Z,18.67
2024-05-09T10:38:08.637Z,18.74
2024-05-09T10:40:36.646Z,18.42
2024-05-09T10:43:05.863Z,18.14
2024-05-09T10:45:35.301Z,17.95
2024-05-09T10:48:02.540Z,17.82
2024-05-09T10:50:34.016Z,17.89
2024-05-09T10:53:02.479Z,17.96
2024-05-09T10:55:29.167Z,18.26
2024-05-09T10:57:55.810Z,18.71
2024-05-09T11:00:27.824Z,19.05
2024-05-09T11:03:00.189Z,18.92
2024-05-09T11:05:26.999Z,18.80
2024-05-09T11:07:53.952Z,18.78
2024-05-09T11:10:27.555Z,19.07
2024-05-09T11:13:00.078Z,19.20
2024-05-09T11:15:26.657Z,18.76
2024-05-09T11:17:53.337Z,18.55
2024-05-09T11:20:26.867Z,18.78
2024-05-09T11:22:57.789Z,19.09
2024-05-09T11:25:24.452Z,19.32
2024-05-09T11:27:51.213Z,19.39
2024-05-09T11:30:26.723Z,19.47
2024-05-09T11:32:58.734Z,19.57
2024-05-09T11:35:26.469Z,19.52
2024-05-09T11:37:53.140Z,19.42
2024-05-09T11:40:25.444Z,19.53
2024-05-09T11:42:55.266Z,19.43
2024-05-09T11:45:21.996Z,19.37
2024-05-09T11:47:49.264Z,19.30
2024-05-09T11:50:22.699Z,19.24
2024-05-09T11:52:56.213Z,19.10
2024-05-09T11:55:26.800Z,19.08
2024-05-09T11:57:54.659Z,19.02
2024-05-09T12:00:29.463Z,18.92
2024-05-09T12:03:04.764Z,18.89
2024-05-09T12:05:32.637Z,18.82
2024-05-09T12:07:59.483Z,18.82
2024-05-09T12:10:32.326Z,18.82
2024-05-09T12:13:01.648Z,18.82
2024-05-09T12:15:28.311Z,18.69
2024-05-09T12:17:57.327Z,18.62
2024-05-09T12:20:33.063Z,18.74
2024-05-09T12:23:03.864Z,18.86
2024-05-09T12:25:30.615Z,18.98
2024-05-09T12:27:57.331Z,19.05
2024-05-09T12:30:32.812Z,19.08
2024-05-09T12:33:04.285Z,19.05
2024-05-09T12:35:31.203Z,19.01
2024-05-09T12:37:57.749Z,19.03
2024-05-09T12:40:34.132Z,19.08
2024-05-09T12:43:04.361Z,19.12
2024-05-09T12:45:31.368Z,19.21
2024-05-09T12:47:58.360Z,19.28
2024-05-09T12:50:31.631Z,19.26
2024-05-09T12:53:00.404Z,19.29
2024-05-09T12:55:28.124Z,19.30
2024-05-09T12:57:55.307Z,19.27
2024-05-09T13:00:28.183Z,19.29
2024-05-09T13:03:00.239Z,19.36
2024-05-09T13:05:27.260Z,19.34
2024-05-09T13:07:54.077Z,19.36
2024-05-09T13:10:28.981Z,19.40
2024-05-09T13:12:59.587Z,19.40
2024-05-09T13:15:26.392Z,19.49
2024-05-09T13:17:53.151Z,19.57
2024-05-09T13:20:28.948Z,19.57
2024-05-09T13:23:01.570Z,19.47
2024-05-09T13:25:28.177Z,19.48
2024-05-09T13:27:55.344Z,19.48
2024-05-09T13:30:29.484Z,19.44
2024-05-09T13:33:05.748Z,19.41
2024-05-09T13:35:34.383Z,19.30
2024-05-09T13:38:01.962Z,19.24
2024-05-09T13:40:33.619Z,19.19
2024-05-09T13:43:02.699Z,19.10
2024-05-09T13:45:29.370Z,19.10
2024-05-09T13:47:56.428Z,19.02
2024-05-09T13:50:30.518Z,18.95
2024-05-09T13:53:00.734Z,18.92
2024-05-09T13:55:27.832Z,18.90
2024-05-09T13:57:54.503Z,18.89
2024-05-09T14:02:50.526Z,18.81
2024-05-09T14:05:17.461Z,18.85
2024-05-09T14:07:44.220Z,18.84
2024-05-09T14:10:19.812Z,18.92
2024-05-09T14:12:52.483Z,18.95
2024-05-09T14:15:19.011Z,18.86
2024-05-09T14:17:46.111Z,18.90
2024-05-09T14:20:16.646Z,18.91
2024-05-09T14:22:49.799Z,18.92
2024-05-09T14:25:16.366Z,18.98
2024-05-09T14:27:43.376Z,18.98
2024-05-09T14:30:18.070Z,19.03
2024-05-09T14:32:52.145Z,19.04
2024-05-09T14:35:19.001Z,18.98
2024-05-09T14:37:45.654Z,19.03
2024-05-09T14:40:25.882Z,19.08
2024-05-09T14:43:02.621Z,19.10
2024-05-09T14:45:29.563Z,19.16
2024-05-09T14:47:56.355Z,19.24
2024-05-09T14:50:28.204Z,19.31
2024-05-09T14:53:01.599Z,19.39
2024-05-09T14:55:28.341Z,19.45
2024-05-09T14:57:55.389Z,19.67
2024-05-09T15:00:28.647Z,19.85
2024-05-09T15:02:59.546Z,20.04
2024-05-09T15:05:26.307Z,20.04
2024-05-09T15:07:53.032Z,19.94
2024-05-09T15:10:26.956Z,19.94
2024-05-09T15:13:00.724Z,19.96
2024-05-09T15:15:27.283Z,19.87
2024-05-09T15:17:54.917Z,19.84
2024-05-09T15:20:30.760Z,19.81
2024-05-09T15:23:01.793Z,19.87
2024-05-09T15:25:28.445Z,19.99
2024-05-09T15:27:55.181Z,20.00
2024-05-09T15:30:29.948Z,20.02
2024-05-09T15:32:59.097Z,20.04
2024-05-09T15:35:25.733Z,20.05
2024-05-09T15:37:52.413Z,20.21
2024-05-09T15:40:26.642Z,20.34
2024-05-09T15:43:02.352Z,20.48
2024-05-09T15:45:29.405Z,20.72
2024-05-09T15:47:57.143Z,20.69
2024-05-09T15:50:35.188Z,20.53
2024-05-09T15:53:06.195Z,20.66
2024-05-09T15:55:34.320Z,20.72
2024-05-09T15:58:02.169Z,20.79
2024-05-09T16:00:37.170Z,20.85
2024-05-09T16:03:07.651Z,20.87
2024-05-09T16:05:34.528Z,20.80
2024-05-09T16:08:01.262Z,20.63
2024-05-09T16:10:32.621Z,20.53
2024-05-09T16:13:01.153Z,20.43
2024-05-09T16:15:27.930Z,20.27
2024-05-09T16:17:55.026Z,20.34
2024-05-09T16:20:33.993Z,20.32
2024-05-09T16:23:06.411Z,21.71
2024-05-09T16:25:33.067Z,22.94
2024-05-09T16:27:59.945Z,22.79
2024-05-09T16:30:33.847Z,23.54
2024-05-09T16:33:04.411Z,25.02
2024-05-09T16:35:31.825Z,26.10
2024-05-09T16:37:58.621Z,27.05
2024-05-09T16:40:34.314Z,27.51
2024-05-09T16:43:05.773Z,27.90
2024-05-09T16:45:33.157Z,28.06
2024-05-09T16:48:00.408Z,28.27
2024-05-09T16:50:32.421Z,28.38
2024-05-09T16:53:01.780Z,28.49
2024-05-09T16:55:28.484Z,26.84
2024-05-09T16:57:55.666Z,25.41
2024-05-09T17:00:31.554Z,25.11
2024-05-09T17:03:07.279Z,24.45
2024-05-09T17:05:34.645Z,24.67
2024-05-09T17:08:01.644Z,26.10
2024-05-09T17:10:32.909Z,25.55
2024-05-09T17:13:02.238Z,24.15
2024-05-09T17:15:29.079Z,23.29
2024-05-09T17:17:56.061Z,22.89
2024-05-09T17:20:29.770Z,22.62
2024-05-09T17:23:02.122Z,22.35
2024-05-09T17:25:29.078Z,22.05
2024-05-09T17:27:56.062Z,21.96
2024-05-09T17:30:29.128Z,22.44
2024-05-09T17:33:02.543Z,22.51
2024-05-09T17:35:29.229Z,22.13
2024-05-09T17:37:56.557Z,21.75
2024-05-09T17:40:30.999Z,21.40
2024-05-09T17:43:01.752Z,21.27
2024-05-09T17:45:28.467Z,21.43
2024-05-09T17:47:55.324Z,22.03
2024-05-09T17:50:27.954Z,21.63
2024-05-09T17:53:01.004Z,21.19
2024-05-09T17:55:27.781Z,20.93
2024-05-09T17:57:54.460Z,20.66
2024-05-09T18:00:29.254Z,20.47
2024-05-09T18:03:04.165Z,20.27
2024-05-09T18:05:31.202Z,20.14
2024-05-09T18:07:58.131Z,20.03
2024-05-09T18:10:32.564Z,19.88
2024-05-09T18:13:03.422Z,19.77
2024-05-09T18:15:30.129Z,19.71
2024-05-09T18:17:56.969Z,19.65
2024-05-09T18:20:33.113Z,19.62
2024-05-09T18:23:08.021Z,19.47
2024-05-09T18:25:34.745Z,19.44
2024-05-09T18:28:02.688Z,19.38
2024-05-09T18:30:34.697Z,19.33
2024-05-09T18:33:03.679Z,19.31
2024-05-09T18:35:30.606Z,19.28
2024-05-09T18:37:57.138Z,19.23
2024-05-09T18:42:53.149Z,19.20
2024-05-09T18:45:19.686Z,19.17
2024-05-09T18:47:46.293Z,19.14
2024-05-09T18:50:20.424Z,19.07
2024-05-09T18:52:54.276Z,18.98
2024-05-09T18:55:20.680Z,18.98
2024-05-09T18:57:47.259Z,18.96
2024-05-09T19:00:26.208Z,18.91
2024-05-09T19:02:59.593Z,18.89
2024-05-09T19:05:26.359Z,18.87
2024-05-09T19:07:53.048Z,18.81
2024-05-09T19:10:22.935Z,18.76
2024-05-09T19:12:52.793Z,18.71
2024-05-09T19:15:19.247Z,18.70
2024-05-09T19:17:47.244Z,18.65
2024-05-09T19:20:24.791Z,18.58
2024-05-09T19:22:55.903Z,18.55
2024-05-09T19:25:22.503Z,18.54
2024-05-09T19:27:49.032Z,18.49
2024-05-09T19:30:25.302Z,18.44
2024-05-09T19:33:01.052Z,18.41
2024-05-09T19:35:27.751Z,18.37
2024-05-09T19:37:54.394Z,18.33
2024-05-09T19:40:28.820Z,18.31
2024-05-09T19:42:58.646Z,18.26
2024-05-09T19:45:25.329Z,18.17
2024-05-09T19:47:52.333Z,18.09
2024-05-09T19:50:26.724Z,18.04
2024-05-09T19:52:59.595Z,18.00
2024-05-09T19:55:26.157Z,17.97
2024-05-09T19:57:52.843Z,17.89
2024-05-09T20:00:26.045Z,17.86
2024-05-09T20:02:56.357Z,17.80
2024-05-09T20:05:23.558Z,17.76
2024-05-09T20:07:50.304Z,17.74
2024-05-09T20:10:23.516Z,17.74
2024-05-09T20:12:53.751Z,17.72
2024-05-09T20:15:20.934Z,17.66
2024-05-09T20:17:47.608Z,17.60
2024-05-09T20:20:24.506Z,17.54
2024-05-09T20:22:59.720Z,17.49
2024-05-09T20:25:26.368Z,17.48
2024-05-09T20:27:53.059Z,17.45
2024-05-09T20:30:28.881Z,17.42
2024-05-09T20:32:59.039Z,17.38
2024-05-09T20:35:26.420Z,17.34
2024-05-09T20:37:53.076Z,17.29
2024-05-09T20:40:28.237Z,17.19
2024-05-09T20:42:58.954Z,17.15
2024-05-09T20:45:25.757Z,17.12
2024-05-09T20:47:52.539Z,17.11
2024-05-09T20:50:28.099Z,17.08
2024-05-09T20:53:02.831Z,17.05
2024-05-09T20:55:29.833Z,17.01
2024-05-09T20:57:57.020Z,16.96
2024-05-09T21:00:30.301Z,16.91
2024-05-09T21:03:06.195Z,16.86
2024-05-09T21:05:33.473Z,16.81
2024-05-09T21:08:00.303Z,16.79
2024-05-09T21:10:27.401Z,16.76
2024-05-09T21:12:57.771Z,16.73
2024-05-09T21:15:24.394Z,16.71
2024-05-09T21:17:50.884Z,16.69
2024-05-09T21:20:23.610Z,16.64
2024-05-09T21:22:54.837Z,16.60
2024-05-09T21:25:21.419Z,16.52
2024-05-09T21:27:47.967Z,16.47
2024-05-09T21:30:22.286Z,16.43
2024-05-09T21:32:54.986Z,16.36
2024-05-09T21:35:21.670Z,16.33
2024-05-09T21:37:48.216Z,16.29
2024-05-09T21:40:24.256Z,16.25
2024-05-09T21:42:57.827Z,16.23
2024-05-09T21:45:24.370Z,16.10
2024-05-09T21:47:50.927Z,16.09
2024-05-09T21:50:22.913Z,16.06
2024-05-09T21:52:54.739Z,16.03
2024-05-09T21:55:21.354Z,15.98
2024-05-09T21:57:47.964Z,15.97
2024-05-09T22:00:27.931Z,15.93
2024-05-09T22:03:01.526Z,15.93
2024-05-09T22:05:28.127Z,15.89
2024-05-09T22:07:54.728Z,15.88
2024-05-09T22:10:26.472Z,15.87
2024-05-09T22:12:59.259Z,15.83
2024-05-09T22:15:26.547Z,15.79
2024-05-09T22:17:53.743Z,15.77
2024-05-09T22:20:28.769Z,15.73
2024-05-09T22:23:02.640Z,15.67
2024-05-09T22:25:30.904Z,15.64
2024-05-09T22:27:58.438Z,15.59
2024-05-09T22:30:33.781Z,15.54
2024-05-09T22:33:05.344Z,15.48
2024-05-09T22:35:32.135Z,15.39
2024-05-09T22:37:58.859Z,15.34
2024-05-09T22:40:37.865Z,15.27
2024-05-09T22:43:12.364Z,15.21
2024-05-09T22:45:39.175Z,15.17
2024-05-09T22:48:06.316Z,15.09
2024-05-09T22:50:33.776Z,15.07
2024-05-09T22:53:00.631Z,15.05
2024-05-09T22:55:27.183Z,15.04
2024-05-09T22:57:53.752Z,15.04
2024-05-09T23:00:29.179Z,15.02
2024-05-09T23:03:00.046Z,14.98
2024-05-09T23:05:26.989Z,14.91
2024-05-09T23:07:53.635Z,14.89
2024-05-09T23:10:27.738Z,14.87
2024-05-09T23:12:59.297Z,14.81
2024-05-09T23:15:25.989Z,14.79
2024-05-09T23:17:52.705Z,14.78
2024-05-09T23:20:29.814Z,14.79
2024-05-09T23:23:03.281Z,14.73
2024-05-09T23:25:29.864Z,14.71
2024-05-09T23:27:56.544Z,14.68
2024-05-09T23:30:33.090Z,14.65
2024-05-09T23:33:04.820Z,14.61
2024-05-09T23:35:31.629Z,14.62
2024-05-09T23:37:58.170Z,14.58
2024-05-09T23:40:34.952Z,14.57
2024-05-09T23:43:05.597Z,14.52
2024-05-09T23:45:32.141Z,14.46
2024-05-09T23:47:58.885Z,14.40
2024-05-09T23:50:33.584Z,14.39
2024-05-09T23:53:03.246Z,14.38
2024-05-09T23:55:31.198Z,14.34
2024-05-09T23:57:58.127Z,14.27
